createdAt,value
2022-07-25T00:00:17.176Z,92.77
2022-07-25T00:02:46.130Z,94.21
2022-07-25T00:05:14.051Z,90.23
2022-07-25T00:07:41.979Z,91.19
2022-07-25T00:10:10.966Z,93.88
2022-07-25T00:12:39.317Z,100.00
2022-07-25T00:15:08.371Z,96.62
2022-07-25T00:17:37.914Z,95.05
2022-07-25T00:20:07.771Z,97.71
2022-07-25T00:22:35.705Z,94.24
2022-07-25T00:25:03.697Z,92.62
2022-07-25T00:27:31.719Z,94.50
2022-07-25T00:29:59.691Z,94.22
2022-07-25T00:32:27.611Z,95.38
2022-07-25T00:34:56.941Z,94.60
2022-07-25T00:37:24.890Z,97.26
2022-07-25T00:39:52.863Z,93.73
2022-07-25T00:42:21.775Z,98.38
2022-07-25T00:44:49.728Z,97.85
2022-07-25T00:47:17.702Z,99.13
2022-07-25T00:49:45.626Z,100.00
2022-07-25T00:52:15.332Z,98.91
2022-07-25T00:54:43.420Z,97.10
2022-07-25T00:57:12.972Z,95.75
2022-07-25T00:59:40.973Z,100.00
2022-07-25T01:02:09.041Z,100.00
2022-07-25T01:04:37.002Z,97.67
2022-07-25T01:07:04.951Z,96.89
2022-07-25T01:09:34.309Z,97.71
2022-07-25T01:12:02.267Z,97.22
2022-07-25T01:14:30.199Z,100.00
2022-07-25T01:16:58.174Z,100.00
2022-07-25T01:19:26.102Z,99.21
2022-07-25T01:21:56.372Z,98.34
2022-07-25T01:24:24.296Z,97.22
2022-07-25T01:26:52.285Z,97.05
2022-07-25T01:29:20.259Z,100.00
2022-07-25T01:31:48.207Z,98.21
2022-07-25T01:34:16.170Z,97.98
2022-07-25T01:36:44.147Z,97.97
2022-07-25T01:39:13.451Z,98.81
2022-07-25T01:41:41.420Z,99.87
2022-07-25T01:44:09.753Z,99.33
2022-07-25T01:46:37.991Z,100.00
2022-07-25T01:49:06.366Z,98.98
2022-07-25T01:51:34.358Z,97.41
2022-07-25T01:54:02.326Z,96.20
2022-07-25T01:56:32.743Z,94.93
2022-07-25T01:59:01.343Z,94.40
2022-07-25T02:01:29.316Z,94.07
2022-07-25T02:03:57.299Z,93.88
2022-07-25T02:06:25.258Z,94.21
2022-07-25T02:08:53.195Z,94.70
2022-07-25T02:11:21.249Z,95.64
2022-07-25T02:13:50.551Z,96.14
2022-07-25T02:16:18.631Z,100.00
2022-07-25T02:18:47.788Z,100.00
2022-07-25T02:21:16.486Z,100.00
2022-07-25T02:23:44.690Z,100.00
2022-07-25T02:26:13.326Z,100.00
2022-07-25T02:28:41.955Z,100.00
2022-07-25T02:31:11.569Z,100.00
2022-07-25T02:33:39.617Z,99.33
2022-07-25T02:36:08.341Z,98.26
2022-07-25T02:38:36.308Z,100.00
2022-07-25T02:41:04.896Z,100.00
2022-07-25T02:43:32.847Z,100.00
2022-07-25T02:46:00.863Z,100.00
2022-07-25T02:48:30.334Z,100.00
2022-07-25T02:50:58.345Z,100.00
2022-07-25T02:53:54.427Z,100.00
2022-07-25T02:56:14.272Z,100.00
2022-07-25T02:58:42.896Z,100.00
2022-07-25T03:01:11.142Z,100.00
2022-07-25T03:03:40.624Z,100.00
2022-07-25T03:06:08.830Z,100.00
2022-07-25T03:08:36.769Z,99.71
2022-07-25T03:11:04.801Z,96.23
2022-07-25T03:13:33.350Z,92.96
2022-07-25T03:16:01.493Z,90.44
2022-07-25T03:18:29.607Z,87.96
2022-07-25T03:20:58.985Z,87.09
2022-07-25T03:23:27.441Z,87.18
2022-07-25T03:25:55.508Z,86.10
2022-07-25T03:28:24.739Z,82.86
2022-07-25T03:30:53.059Z,83.69
2022-07-25T03:33:21.160Z,83.16
2022-07-25T03:35:49.150Z,82.61
2022-07-25T03:38:18.731Z,81.39
2022-07-25T03:40:46.687Z,81.54
2022-07-25T03:43:14.682Z,81.36
2022-07-25T03:45:42.839Z,81.00
2022-07-25T03:48:10.806Z,80.44
2022-07-25T03:50:38.707Z,80.08
2022-07-25T03:53:06.818Z,80.34
2022-07-25T03:55:40.501Z,80.57
2022-07-25T03:58:08.582Z,79.59
2022-07-25T04:00:36.571Z,79.66
2022-07-25T04:03:05.083Z,79.08
2022-07-25T04:05:33.078Z,79.36
2022-07-25T04:08:01.054Z,78.96
2022-07-25T04:10:29.030Z,78.55
2022-07-25T04:12:58.346Z,78.77
2022-07-25T04:15:26.474Z,79.24
2022-07-25T04:17:54.427Z,79.13
2022-07-25T04:20:23.443Z,79.34
2022-07-25T04:22:53.088Z,79.38
2022-07-25T04:25:21.084Z,78.30
2022-07-25T04:27:49.075Z,78.64
2022-07-25T04:30:24.573Z,78.11
2022-07-25T04:32:52.950Z,78.77
2022-07-25T04:35:21.077Z,78.57
2022-07-25T04:37:49.010Z,78.99
2022-07-25T04:40:17.009Z,78.93
2022-07-25T04:42:44.931Z,77.87
2022-07-25T04:45:17.900Z,79.04
2022-07-25T04:47:47.405Z,78.59
2022-07-25T04:50:15.489Z,78.20
2022-07-25T04:52:43.525Z,79.16
2022-07-25T04:55:11.526Z,80.56
2022-07-25T04:57:39.508Z,80.09
2022-07-25T05:00:09.001Z,78.69
2022-07-25T05:02:37.589Z,78.26
2022-07-25T05:05:08.563Z,76.59
2022-07-25T05:07:49.240Z,77.72
2022-07-25T05:10:17.201Z,76.13
2022-07-25T05:12:45.113Z,75.88
2022-07-25T05:15:13.727Z,74.97
2022-07-25T05:17:41.663Z,74.17
2022-07-25T05:20:12.476Z,71.57
2022-07-25T05:22:40.598Z,73.10
2022-07-25T05:25:10.025Z,72.55
2022-07-25T05:27:38.358Z,71.52
2022-07-25T05:30:07.886Z,70.86
2022-07-25T05:32:35.820Z,71.34
2022-07-25T05:35:03.914Z,71.36
2022-07-25T05:37:33.213Z,70.93
2022-07-25T05:40:01.178Z,69.73
2022-07-25T05:42:29.108Z,71.42
2022-07-25T05:44:57.070Z,70.09
2022-07-25T05:47:25.234Z,70.30
2022-07-25T05:49:53.213Z,70.54
2022-07-25T05:52:21.166Z,69.06
2022-07-25T05:54:50.543Z,69.14
2022-07-25T05:57:18.683Z,68.52
2022-07-25T05:59:46.623Z,69.39
2022-07-25T06:02:14.693Z,67.59
2022-07-25T06:04:42.759Z,67.71
2022-07-25T06:07:10.852Z,67.91
2022-07-25T06:09:42.550Z,66.52
2022-07-25T06:12:11.875Z,67.14
2022-07-25T06:14:39.867Z,67.30
2022-07-25T06:17:07.826Z,67.14
2022-07-25T06:19:35.823Z,66.25
2022-07-25T06:22:03.729Z,66.43
2022-07-25T06:24:31.938Z,65.00
2022-07-25T06:26:59.939Z,65.91
2022-07-25T06:29:29.242Z,65.25
2022-07-25T06:31:57.247Z,65.58
2022-07-25T06:34:28.693Z,62.26
2022-07-25T06:36:57.576Z,63.15
2022-07-25T06:39:25.725Z,63.44
2022-07-25T06:41:53.647Z,64.13
2022-07-25T06:44:21.647Z,63.92
2022-07-25T06:46:51.000Z,64.78
2022-07-25T06:49:19.032Z,63.64
2022-07-25T06:51:47.011Z,65.12
2022-07-25T06:54:15.686Z,63.96
2022-07-25T06:56:43.631Z,65.47
2022-07-25T06:59:11.603Z,64.11
2022-07-25T07:01:39.763Z,63.12
2022-07-25T07:04:09.540Z,61.81
2022-07-25T07:06:38.750Z,60.30
2022-07-25T07:09:07.001Z,60.48
2022-07-25T07:11:35.155Z,59.85
2022-07-25T07:14:03.742Z,59.41
2022-07-25T07:16:32.517Z,58.12
2022-07-25T07:19:00.579Z,58.06
2022-07-25T07:21:29.962Z,58.04
2022-07-25T07:23:57.907Z,57.63
2022-07-25T07:26:25.877Z,57.52
2022-07-25T07:28:56.007Z,57.69
2022-07-25T07:31:24.048Z,55.65
2022-07-25T07:33:52.052Z,54.89
2022-07-25T07:36:20.014Z,57.39
2022-07-25T07:38:49.507Z,56.06
2022-07-25T07:41:17.476Z,55.16
2022-07-25T07:43:45.432Z,54.82
2022-07-25T07:46:13.422Z,54.12
2022-07-25T07:48:41.444Z,53.87
2022-07-25T07:51:09.422Z,53.07
2022-07-25T07:53:54.828Z,53.24
2022-07-25T07:56:24.279Z,52.43
2022-07-25T07:58:52.237Z,53.30
2022-07-25T08:01:20.193Z,50.99
2022-07-25T08:03:48.272Z,50.71
2022-07-25T08:06:16.550Z,51.50
2022-07-25T08:08:44.475Z,50.35
2022-07-25T08:11:12.412Z,51.75
2022-07-25T08:13:41.732Z,51.13
2022-07-25T08:16:11.967Z,50.85
2022-07-25T08:18:40.003Z,49.72
2022-07-25T08:21:08.224Z,50.05
2022-07-25T08:23:38.940Z,49.36
2022-07-25T08:26:07.706Z,49.17
2022-07-25T08:28:35.692Z,51.97
2022-07-25T08:31:05.182Z,49.80
2022-07-25T08:33:33.240Z,51.58
2022-07-25T08:36:01.647Z,50.49
2022-07-25T08:38:30.288Z,49.94
2022-07-25T08:40:59.872Z,51.08
2022-07-25T08:43:29.327Z,50.82
2022-07-25T08:45:57.281Z,50.68
2022-07-25T08:48:27.796Z,50.36
2022-07-25T08:50:57.149Z,50.66
2022-07-25T08:53:34.580Z,50.40
2022-07-25T08:56:08.136Z,51.33
2022-07-25T08:58:38.753Z,49.89
2022-07-25T09:01:07.149Z,49.17
2022-07-25T09:03:36.708Z,50.61
2022-07-25T09:06:15.547Z,47.82
2022-07-25T09:08:52.803Z,46.92
2022-07-25T09:11:31.293Z,46.62
2022-07-25T09:14:00.789Z,46.60
2022-07-25T09:16:32.626Z,46.07
2022-07-25T09:19:12.744Z,46.25
2022-07-25T09:21:41.922Z,45.36
2022-07-25T09:24:11.647Z,44.40
2022-07-25T09:26:48.036Z,44.69
2022-07-25T09:29:20.802Z,45.10
2022-07-25T09:31:48.926Z,46.48
2022-07-25T09:34:34.743Z,44.80
2022-07-25T09:37:03.520Z,44.87
2022-07-25T09:39:36.213Z,44.76
2022-07-25T09:42:04.790Z,44.98
2022-07-25T09:44:32.736Z,44.66
2022-07-25T09:47:11.974Z,45.40
2022-07-25T09:49:43.855Z,48.03
2022-07-25T09:52:12.752Z,45.34
2022-07-25T09:54:41.246Z,44.26
2022-07-25T09:57:09.201Z,45.99
2022-07-25T09:59:38.157Z,45.99
2022-07-25T10:02:10.136Z,44.85
2022-07-25T10:04:51.159Z,44.32
2022-07-25T10:07:22.087Z,47.62
2022-07-25T10:09:52.174Z,44.38
2022-07-25T10:12:21.462Z,44.06
2022-07-25T10:15:05.429Z,45.39
2022-07-25T10:17:33.433Z,46.47
2022-07-25T10:20:04.094Z,45.07
2022-07-25T10:22:55.770Z,47.48
2022-07-25T10:25:24.529Z,44.46
2022-07-25T10:28:00.145Z,43.85
2022-07-25T10:30:29.948Z,44.49
2022-07-25T10:32:59.402Z,43.81
2022-07-25T10:35:29.271Z,45.87
2022-07-25T10:37:59.066Z,43.16
2022-07-25T10:40:29.838Z,46.71
2022-07-25T10:43:02.075Z,43.23
2022-07-25T10:45:39.518Z,43.71
2022-07-25T10:48:12.339Z,45.17
2022-07-25T10:50:56.327Z,43.11
2022-07-25T10:53:35.467Z,43.65
2022-07-25T10:56:10.827Z,44.42
2022-07-25T10:58:47.076Z,43.88
2022-07-25T11:01:15.623Z,43.20
2022-07-25T11:03:45.738Z,44.03
2022-07-25T11:06:16.093Z,43.35
2022-07-25T11:08:44.512Z,41.34
2022-07-25T11:11:13.225Z,40.78
2022-07-25T11:13:42.003Z,39.55
2022-07-25T11:16:10.910Z,39.70
2022-07-25T11:18:40.311Z,40.73
2022-07-25T11:21:09.930Z,39.30
2022-07-25T11:23:41.773Z,37.21
2022-07-25T11:26:11.130Z,39.08
2022-07-25T11:28:44.190Z,39.32
2022-07-25T11:31:13.274Z,39.40
2022-07-25T11:33:42.711Z,39.51
2022-07-25T11:36:11.910Z,38.68
2022-07-25T11:38:43.101Z,37.71
2022-07-25T11:41:12.329Z,36.23
2022-07-25T11:43:49.595Z,37.25
2022-07-25T11:46:18.441Z,37.97
2022-07-25T11:48:47.750Z,37.66
2022-07-25T11:51:19.002Z,38.32
2022-07-25T11:53:51.135Z,38.43
2022-07-25T11:56:43.626Z,37.37
2022-07-25T11:59:10.172Z,39.45
2022-07-25T12:01:40.352Z,38.25
2022-07-25T12:04:12.734Z,37.75
2022-07-25T12:06:41.013Z,37.56
2022-07-25T12:09:19.272Z,38.18
2022-07-25T12:11:48.273Z,37.13
2022-07-25T12:14:16.667Z,36.86
2022-07-25T12:16:44.894Z,36.01
2022-07-25T12:19:20.535Z,37.54
2022-07-25T12:21:48.656Z,37.85
2022-07-25T12:24:17.993Z,38.08
2022-07-25T12:26:45.995Z,40.38
2022-07-25T12:29:13.933Z,38.86
2022-07-25T12:31:41.882Z,39.18
2022-07-25T12:34:09.870Z,40.53
2022-07-25T12:36:43.899Z,41.12
2022-07-25T12:39:12.523Z,40.05
2022-07-25T12:41:42.769Z,40.36
2022-07-25T12:44:11.280Z,41.27
2022-07-25T12:46:45.819Z,41.22
2022-07-25T12:49:15.493Z,42.50
2022-07-25T12:51:43.583Z,41.53
2022-07-25T12:54:11.527Z,41.33
2022-07-25T12:56:41.011Z,42.28
2022-07-25T12:59:09.396Z,42.12
2022-07-25T13:01:37.576Z,42.82
2022-07-25T13:04:09.271Z,42.89
2022-07-25T13:06:38.877Z,43.43
2022-07-25T13:09:07.909Z,44.05
2022-07-25T13:11:36.279Z,43.44
2022-07-25T13:14:06.347Z,43.70
2022-07-25T13:16:37.736Z,45.17
2022-07-25T13:19:06.163Z,44.50
2022-07-25T13:21:34.382Z,43.90
2022-07-25T13:24:02.366Z,45.15
2022-07-25T13:26:30.379Z,44.46
2022-07-25T13:29:00.050Z,44.55
2022-07-25T13:31:29.642Z,43.47
2022-07-25T13:33:57.839Z,44.00
2022-07-25T13:36:25.844Z,44.77
2022-07-25T13:38:53.780Z,44.69
2022-07-25T13:41:21.735Z,46.40
2022-07-25T13:43:49.694Z,45.43
2022-07-25T13:46:17.879Z,44.33
2022-07-25T13:48:47.387Z,44.32
2022-07-25T13:51:15.720Z,44.76
2022-07-25T13:53:44.946Z,45.18
2022-07-25T13:56:13.416Z,45.74
2022-07-25T13:58:41.793Z,46.57
2022-07-25T14:01:11.700Z,47.47
2022-07-25T14:03:39.731Z,47.37
2022-07-25T14:06:11.192Z,52.41
2022-07-25T14:08:40.578Z,62.07
2022-07-25T14:11:08.627Z,63.68
2022-07-25T14:13:36.831Z,69.75
2022-07-25T14:16:05.259Z,67.57
2022-07-25T14:18:33.211Z,64.87
2022-07-25T14:21:01.214Z,69.20
2022-07-25T14:23:30.583Z,69.54
2022-07-25T14:26:00.167Z,69.37
2022-07-25T14:28:28.225Z,73.87
2022-07-25T14:30:56.611Z,71.98
2022-07-25T14:33:24.730Z,72.81
2022-07-25T14:35:52.788Z,74.50
2022-07-25T14:38:20.862Z,76.42
2022-07-25T14:40:51.132Z,72.87
2022-07-25T14:43:19.071Z,74.30
2022-07-25T14:45:47.031Z,71.05
2022-07-25T14:48:15.434Z,73.35
2022-07-25T14:50:43.418Z,73.05
2022-07-25T14:53:12.793Z,74.41
2022-07-25T14:55:40.716Z,74.20
2022-07-25T14:58:10.100Z,80.81
2022-07-25T15:00:41.758Z,80.38
2022-07-25T15:03:09.781Z,76.66
2022-07-25T15:05:38.494Z,74.18
2022-07-25T15:08:07.316Z,86.38
2022-07-25T15:10:35.368Z,89.04
2022-07-25T15:13:29.510Z,88.82
2022-07-25T15:15:52.722Z,84.38
2022-07-25T15:18:20.807Z,85.54
2022-07-25T15:20:48.786Z,93.28
2022-07-25T15:23:16.704Z,100.00
2022-07-25T15:26:01.096Z,98.14
2022-07-25T15:28:30.150Z,97.65
2022-07-25T15:30:59.545Z,100.00
2022-07-25T15:33:27.604Z,97.52
2022-07-25T15:35:55.623Z,91.32
2022-07-25T15:38:24.017Z,100.00
2022-07-25T15:40:51.994Z,100.00
2022-07-25T15:43:19.930Z,100.00
2022-07-25T15:45:48.249Z,100.00
2022-07-25T15:48:18.295Z,92.36
2022-07-25T15:50:49.294Z,83.21
2022-07-25T15:53:17.343Z,81.71
2022-07-25T15:55:45.339Z,79.03
2022-07-25T15:58:13.331Z,100.00
2022-07-25T16:00:41.364Z,91.95
2022-07-25T16:03:10.009Z,92.53
2022-07-25T16:05:40.075Z,100.00
2022-07-25T16:08:09.950Z,100.00
2022-07-25T16:10:38.614Z,100.00
2022-07-25T16:13:07.162Z,100.00
2022-07-25T16:15:35.100Z,100.00
2022-07-25T16:18:03.371Z,92.52
2022-07-25T16:20:32.292Z,90.86
2022-07-25T16:23:02.464Z,87.25
2022-07-25T16:25:31.224Z,83.81
2022-07-25T16:27:59.881Z,85.82
2022-07-25T16:30:28.375Z,85.08
2022-07-25T16:32:56.549Z,88.01
2022-07-25T16:35:24.864Z,91.87
2022-07-25T16:37:52.954Z,100.00
2022-07-25T16:40:28.715Z,100.00
2022-07-25T16:42:59.748Z,100.00
2022-07-25T16:45:28.326Z,100.00
2022-07-25T16:47:56.313Z,98.48
2022-07-25T16:50:24.270Z,100.00
2022-07-25T16:52:53.692Z,100.00
2022-07-25T16:55:23.129Z,100.00
2022-07-25T16:57:51.435Z,100.00
2022-07-25T17:00:20.214Z,100.00
2022-07-25T17:02:48.175Z,97.99
2022-07-25T17:05:16.356Z,100.00
2022-07-25T17:07:44.417Z,100.00
2022-07-25T17:10:12.425Z,100.00
2022-07-25T17:12:41.741Z,100.00
2022-07-25T17:15:10.858Z,100.00
2022-07-25T17:17:38.816Z,100.00
2022-07-25T17:20:07.892Z,100.00
2022-07-25T17:22:35.935Z,100.00
2022-07-25T17:25:03.991Z,100.00
2022-07-25T17:27:32.109Z,100.00
2022-07-25T17:30:01.491Z,100.00
2022-07-25T17:32:30.158Z,100.00
2022-07-25T17:34:58.577Z,100.00
2022-07-25T17:37:27.759Z,100.00
2022-07-25T17:39:55.950Z,100.00
2022-07-25T17:42:24.042Z,100.00
2022-07-25T17:44:52.359Z,100.00
2022-07-25T17:47:21.868Z,100.00
2022-07-25T17:49:51.085Z,100.00
2022-07-25T17:52:19.198Z,100.00
2022-07-25T17:54:47.119Z,100.00
2022-07-25T17:57:15.081Z,100.00
2022-07-25T17:59:43.037Z,100.00
2022-07-25T18:02:11.321Z,100.00
2022-07-25T18:04:40.718Z,100.00
2022-07-25T18:07:08.864Z,100.00
2022-07-25T18:09:36.980Z,100.00
2022-07-25T18:12:05.154Z,100.00
2022-07-25T18:14:33.948Z,100.00
2022-07-25T18:17:01.933Z,100.00
2022-07-25T18:19:30.003Z,100.00
2022-07-25T18:21:59.546Z,100.00
2022-07-25T18:24:29.483Z,100.00
2022-07-25T18:26:58.009Z,100.00
2022-07-25T18:29:26.087Z,100.00
2022-07-25T18:31:54.074Z,100.00
2022-07-25T18:34:22.027Z,100.00
2022-07-25T18:36:50.109Z,100.00
2022-07-25T18:39:19.447Z,100.00
2022-07-25T18:41:47.371Z,100.00
2022-07-25T18:44:15.448Z,100.00
2022-07-25T18:46:45.675Z,100.00
2022-07-25T18:49:13.930Z,100.00
2022-07-25T18:51:42.026Z,100.00
2022-07-25T18:54:10.333Z,100.00
2022-07-25T18:56:40.032Z,100.00
2022-07-25T18:59:08.364Z,100.00
2022-07-25T19:01:37.393Z,100.00
2022-07-25T19:04:06.208Z,100.00
2022-07-25T19:06:34.447Z,100.00
2022-07-25T19:09:02.430Z,100.00
2022-07-25T19:11:30.418Z,100.00
2022-07-25T19:13:59.883Z,100.00
2022-07-25T19:16:27.923Z,100.00
2022-07-25T19:18:56.020Z,100.00
2022-07-25T19:21:24.058Z,100.00
2022-07-25T19:23:52.190Z,100.00
2022-07-25T19:26:21.065Z,100.00
2022-07-25T19:28:49.529Z,100.00
2022-07-25T19:31:19.045Z,100.00
2022-07-25T19:33:47.074Z,100.00
2022-07-25T19:36:15.138Z,100.00
2022-07-25T19:38:43.190Z,100.00
2022-07-25T19:41:11.354Z,100.00
2022-07-25T19:43:39.349Z,100.00
2022-07-25T19:46:07.652Z,100.00
2022-07-25T19:48:37.082Z,100.00
2022-07-25T19:51:05.486Z,100.00
2022-07-25T19:53:33.670Z,100.00
2022-07-25T19:56:02.191Z,100.00
2022-07-25T19:58:31.482Z,100.00
2022-07-25T20:01:01.109Z,100.00
2022-07-25T20:03:29.114Z,100.00
2022-07-25T20:05:58.444Z,100.00
2022-07-25T20:08:26.407Z,100.00
2022-07-25T20:10:54.354Z,100.00
2022-07-25T20:13:22.367Z,100.00
2022-07-25T20:15:50.305Z,100.00
2022-07-25T20:18:19.763Z,100.00
2022-07-25T20:20:48.043Z,100.00
2022-07-25T20:23:17.441Z,100.00
2022-07-25T20:25:45.451Z,100.00
2022-07-25T20:28:13.410Z,100.00
2022-07-25T20:30:41.468Z,100.00
2022-07-25T20:33:10.002Z,100.00
2022-07-25T20:35:38.810Z,100.00
2022-07-25T20:38:09.480Z,100.00
2022-07-25T20:40:46.370Z,100.00
2022-07-25T20:43:16.440Z,100.00
2022-07-25T20:45:44.487Z,100.00
2022-07-25T20:48:13.067Z,100.00
2022-07-25T20:50:41.281Z,100.00
2022-07-25T20:53:10.118Z,100.00
2022-07-25T20:55:39.681Z,100.00
2022-07-25T20:58:07.942Z,100.00
2022-07-25T21:00:36.164Z,100.00
2022-07-25T21:03:04.086Z,100.00
2022-07-25T21:05:37.775Z,100.00
2022-07-25T21:08:06.227Z,100.00
2022-07-25T21:10:34.234Z,100.00
2022-07-25T21:13:03.863Z,100.00
2022-07-25T21:15:32.098Z,100.00
2022-07-25T21:18:00.765Z,100.00
2022-07-25T21:20:28.895Z,100.00
2022-07-25T21:22:56.844Z,100.00
2022-07-25T21:25:24.808Z,100.00
2022-07-25T21:27:52.825Z,100.00
2022-07-25T21:30:22.217Z,100.00
2022-07-25T21:32:50.144Z,100.00
2022-07-25T21:35:18.585Z,100.00
2022-07-25T21:37:46.579Z,100.00
2022-07-25T21:40:14.700Z,100.00
2022-07-25T21:42:43.382Z,100.00
2022-07-25T21:45:12.307Z,100.00
2022-07-25T21:47:41.657Z,100.00
2022-07-25T21:50:28.166Z,100.00
2022-07-25T21:52:56.145Z,100.00
2022-07-25T21:55:24.251Z,100.00
2022-07-25T21:57:52.532Z,100.00
2022-07-25T22:00:21.588Z,100.00
2022-07-25T22:02:51.148Z,100.00
2022-07-25T22:05:19.981Z,100.00
2022-07-25T22:07:48.772Z,100.00
2022-07-25T22:10:17.954Z,100.00
2022-07-25T22:12:46.315Z,100.00
2022-07-25T22:15:14.672Z,100.00
2022-07-25T22:17:48.470Z,100.00
2022-07-25T22:20:19.806Z,100.00
2022-07-25T22:22:48.362Z,100.00
2022-07-25T22:25:16.411Z,100.00
2022-07-25T22:27:44.822Z,100.00
2022-07-25T22:30:18.207Z,100.00
2022-07-25T22:32:46.727Z,100.00
2022-07-25T22:35:15.146Z,100.00
2022-07-25T22:37:44.593Z,100.00
2022-07-25T22:40:13.558Z,100.00
2022-07-25T22:42:41.539Z,100.00
2022-07-25T22:45:10.318Z,100.00
2022-07-25T22:47:38.322Z,100.00
2022-07-25T22:50:07.504Z,100.00
2022-07-25T22:52:36.037Z,100.00
2022-07-25T22:55:06.011Z,100.00
2022-07-25T22:57:37.151Z,100.00
2022-07-25T23:00:08.220Z,100.00
2022-07-25T23:02:36.303Z,100.00
2022-07-25T23:05:04.829Z,100.00
2022-07-25T23:07:32.889Z,100.00
2022-07-25T23:10:00.834Z,100.00
2022-07-25T23:12:30.181Z,100.00
2022-07-25T23:14:58.113Z,100.00
2022-07-25T23:17:26.166Z,100.00
2022-07-25T23:19:55.822Z,100.00
2022-07-25T23:22:25.266Z,100.00
2022-07-25T23:24:53.434Z,100.00
2022-07-25T23:27:21.484Z,100.00
2022-07-25T23:29:50.822Z,100.00
2022-07-25T23:32:18.951Z,100.00
2022-07-25T23:34:46.951Z,100.00
2022-07-25T23:37:15.099Z,100.00
2022-07-25T23:39:43.033Z,100.00
2022-07-25T23:42:11.055Z,100.00
2022-07-25T23:44:39.375Z,100.00
2022-07-25T23:47:10.134Z,100.00
2022-07-25T23:49:38.749Z,100.00
2022-07-25T23:52:07.145Z,100.00
2022-07-25T23:54:35.828Z,100.00
2022-07-25T23:57:03.964Z,100.00
2022-07-25T23:59:31.954Z,100.00
